createdAt,value
2018-02-05T00:00:47.214Z,54.77
2018-02-05T00:03:14.763Z,53.45
2018-02-05T00:05:42.363Z,55.90
2018-02-05T00:08:10.308Z,55.04
2018-02-05T00:10:37.854Z,55.78
2018-02-05T00:13:05.527Z,55.02
2018-02-05T00:15:33.133Z,54.47
2018-02-05T00:18:00.712Z,53.71
2018-02-05T00:20:29.116Z,53.63
2018-02-05T00:22:56.665Z,53.06
2018-02-05T00:25:24.810Z,53.19
2018-02-05T00:27:52.420Z,52.91
2018-02-05T00:30:20.075Z,52.45
2018-02-05T00:32:48.549Z,52.33
2018-02-05T00:35:16.087Z,52.16
2018-02-05T00:37:44.099Z,51.95
2018-02-05T00:40:11.639Z,51.63
2018-02-05T00:42:39.244Z,51.65
2018-02-05T00:45:06.868Z,51.44
2018-02-05T00:47:34.438Z,51.08
2018-02-05T00:50:02.027Z,51.17
2018-02-05T00:52:30.093Z,50.89
2018-02-05T00:54:57.707Z,49.74
2018-02-05T00:57:25.308Z,50.42
2018-02-05T00:59:53.410Z,50.48
2018-02-05T01:02:21.012Z,50.67
2018-02-05T01:04:48.574Z,50.18
2018-02-05T01:07:16.194Z,50.35
2018-02-05T01:09:43.735Z,49.95
2018-02-05T01:12:11.316Z,50.23
2018-02-05T01:14:39.359Z,48.63
2018-02-05T01:17:06.955Z,48.55
2018-02-05T01:19:34.534Z,50.14
2018-02-05T01:22:02.432Z,49.67
2018-02-05T01:24:30.014Z,49.62
2018-02-05T01:26:57.986Z,50.04
2018-02-05T01:29:25.582Z,49.59
2018-02-05T01:31:53.176Z,49.24
2018-02-05T01:34:20.775Z,49.78
2018-02-05T01:36:48.314Z,48.50
2018-02-05T01:39:15.895Z,48.78
2018-02-05T01:41:43.457Z,48.87
2018-02-05T01:44:11.058Z,49.74
2018-02-05T01:46:38.650Z,49.11
2018-02-05T01:49:06.243Z,50.61
2018-02-05T01:51:33.791Z,50.51
2018-02-05T01:54:01.858Z,49.33
2018-02-05T01:56:29.799Z,49.42
2018-02-05T01:58:57.385Z,49.41
2018-02-05T02:01:24.934Z,48.88
2018-02-05T02:03:53.040Z,50.09
2018-02-05T02:06:21.654Z,49.50
2018-02-05T02:08:49.223Z,49.05
2018-02-05T02:11:16.804Z,49.66
2018-02-05T02:13:44.391Z,49.80
2018-02-05T02:16:11.926Z,49.39
2018-02-05T02:18:39.508Z,49.09
2018-02-05T02:21:07.046Z,46.84
2018-02-05T02:23:34.643Z,49.26
2018-02-05T02:26:02.204Z,49.21
2018-02-05T02:28:29.774Z,49.45
2018-02-05T02:30:58.017Z,50.15
2018-02-05T02:33:25.612Z,49.96
2018-02-05T02:35:53.208Z,49.23
2018-02-05T02:38:20.888Z,49.22
2018-02-05T02:40:48.469Z,49.33
2018-02-05T02:43:16.063Z,49.00
2018-02-05T02:45:43.622Z,47.84
2018-02-05T02:48:11.626Z,48.42
2018-02-05T02:50:39.227Z,48.49
2018-02-05T02:53:07.184Z,48.42
2018-02-05T02:55:34.782Z,49.34
2018-02-05T02:58:02.764Z,50.26
2018-02-05T03:00:30.376Z,48.79
2018-02-05T03:02:57.974Z,49.11
2018-02-05T03:05:25.903Z,49.14
2018-02-05T03:07:53.850Z,48.57
2018-02-05T03:10:21.435Z,48.09
2018-02-05T03:12:48.988Z,48.95
2018-02-05T03:15:16.565Z,49.61
2018-02-05T03:17:44.176Z,51.17
2018-02-05T03:20:11.760Z,51.29
2018-02-05T03:22:39.370Z,50.64
2018-02-05T03:25:07.206Z,51.25
2018-02-05T03:27:34.770Z,49.52
2018-02-05T03:30:02.375Z,50.05
2018-02-05T03:32:29.937Z,48.72
2018-02-05T03:34:57.518Z,49.95
2018-02-05T03:37:25.295Z,49.74
2018-02-05T03:39:52.888Z,49.78
2018-02-05T03:42:20.435Z,48.76
2018-02-05T03:44:48.024Z,49.76
2018-02-05T03:47:15.578Z,49.94
2018-02-05T03:49:43.495Z,49.65
2018-02-05T03:52:11.048Z,49.17
2018-02-05T03:54:38.771Z,48.97
2018-02-05T03:57:06.340Z,49.17
2018-02-05T03:59:33.893Z,48.77
2018-02-05T04:02:01.491Z,46.67
2018-02-05T04:04:29.634Z,48.00
2018-02-05T04:07:02.778Z,48.44
2018-02-05T04:09:30.333Z,47.99
2018-02-05T04:11:57.883Z,48.37
2018-02-05T04:14:26.020Z,48.13
2018-02-05T04:16:53.985Z,49.35
2018-02-05T04:19:21.591Z,49.22
2018-02-05T04:21:49.133Z,49.68
2018-02-05T04:24:16.698Z,50.27
2018-02-05T04:26:44.307Z,49.38
2018-02-05T04:29:11.891Z,49.61
2018-02-05T04:31:40.220Z,49.82
2018-02-05T04:34:07.780Z,49.18
2018-02-05T04:36:35.374Z,49.28
2018-02-05T04:39:02.937Z,49.20
2018-02-05T04:41:30.496Z,48.78
2018-02-05T04:43:58.083Z,48.80
2018-02-05T04:46:25.634Z,48.90
2018-02-05T04:48:53.218Z,49.25
2018-02-05T04:51:20.806Z,48.28
2018-02-05T04:53:48.360Z,48.59
2018-02-05T04:56:15.968Z,47.41
2018-02-05T04:58:44.101Z,48.72
2018-02-05T05:01:12.330Z,48.57
2018-02-05T05:03:39.934Z,47.66
2018-02-05T05:06:07.494Z,48.45
2018-02-05T05:08:35.096Z,48.45
2018-02-05T05:11:02.641Z,47.89
2018-02-05T05:13:30.232Z,48.19
2018-02-05T05:15:58.108Z,48.15
2018-02-05T05:18:25.698Z,48.35
2018-02-05T05:20:53.276Z,48.02
2018-02-05T05:23:20.858Z,47.58
2018-02-05T05:25:48.415Z,47.75
2018-02-05T05:28:16.390Z,47.40
2018-02-05T05:30:43.940Z,45.95
2018-02-05T05:33:11.535Z,46.95
2018-02-05T05:35:39.915Z,46.06
2018-02-05T05:38:07.491Z,47.14
2018-02-05T05:40:35.051Z,48.28
2018-02-05T05:43:02.656Z,47.51
2018-02-05T05:45:30.202Z,46.98
2018-02-05T05:47:57.758Z,48.10
2018-02-05T05:50:26.717Z,50.26
2018-02-05T05:52:54.270Z,51.47
2018-02-05T05:55:21.950Z,50.88
2018-02-05T05:57:49.552Z,53.23
2018-02-05T06:00:17.153Z,53.95
2018-02-05T06:02:44.776Z,54.12
2018-02-05T06:05:12.380Z,52.02
2018-02-05T06:07:39.948Z,51.65
2018-02-05T06:10:07.559Z,52.21
2018-02-05T06:12:35.157Z,52.24
2018-02-05T06:15:02.773Z,50.81
2018-02-05T06:17:31.134Z,49.22
2018-02-05T06:19:58.926Z,46.67
2018-02-05T06:22:26.511Z,45.77
2018-02-05T06:24:54.072Z,45.04
2018-02-05T06:27:21.764Z,44.41
2018-02-05T06:29:49.849Z,43.70
2018-02-05T06:32:17.449Z,42.39
2018-02-05T06:34:45.029Z,42.16
2018-02-05T06:37:12.597Z,42.49
2018-02-05T06:39:40.203Z,43.49
2018-02-05T06:42:07.751Z,45.14
2018-02-05T06:44:35.358Z,44.79
2018-02-05T06:47:02.985Z,44.39
2018-02-05T06:49:31.054Z,43.13
2018-02-05T06:52:10.604Z,43.20
2018-02-05T06:54:49.842Z,45.18
2018-02-05T06:57:17.416Z,47.27
2018-02-05T06:59:45.268Z,47.34
2018-02-05T07:02:12.860Z,47.62
2018-02-05T07:04:40.407Z,49.55
2018-02-05T07:07:08.248Z,49.82
2018-02-05T07:09:35.816Z,49.22
2018-02-05T07:12:03.776Z,48.36
2018-02-05T07:14:31.401Z,47.41
2018-02-05T07:16:58.962Z,46.41
2018-02-05T07:19:26.915Z,45.65
2018-02-05T07:21:54.647Z,45.58
2018-02-05T07:24:23.206Z,44.85
2018-02-05T07:26:51.157Z,44.63
2018-02-05T07:29:18.759Z,44.04
2018-02-05T07:31:47.059Z,43.14
2018-02-05T07:34:16.436Z,42.91
2018-02-05T07:36:45.022Z,43.55
2018-02-05T07:39:13.376Z,43.58
2018-02-05T07:41:40.966Z,41.74
2018-02-05T07:44:08.574Z,41.42
2018-02-05T07:46:37.139Z,41.74
2018-02-05T07:49:04.860Z,41.28
2018-02-05T07:51:33.169Z,41.45
2018-02-05T07:54:00.766Z,40.20
2018-02-05T07:56:28.762Z,40.52
2018-02-05T07:58:56.798Z,39.25
2018-02-05T08:01:24.581Z,39.50
2018-02-05T08:03:52.305Z,39.24
2018-02-05T08:06:20.477Z,38.96
2018-02-05T08:08:48.340Z,38.54
2018-02-05T08:11:15.901Z,38.43
2018-02-05T08:13:43.462Z,38.65
2018-02-05T08:16:11.059Z,37.71
2018-02-05T08:18:38.642Z,39.14
2018-02-05T08:21:07.027Z,39.11
2018-02-05T08:23:34.584Z,37.65
2018-02-05T08:26:02.191Z,38.39
2018-02-05T08:28:29.790Z,37.94
2018-02-05T08:30:57.749Z,36.72
2018-02-05T08:33:25.356Z,36.65
2018-02-05T08:35:53.580Z,36.60
2018-02-05T08:38:21.148Z,37.01
2018-02-05T08:40:48.805Z,37.75
2018-02-05T08:43:16.572Z,36.50
2018-02-05T08:45:44.605Z,36.96
2018-02-05T08:48:12.151Z,35.91
2018-02-05T08:50:40.358Z,36.77
2018-02-05T08:53:07.985Z,35.82
2018-02-05T08:55:37.074Z,36.07
2018-02-05T08:58:05.442Z,35.49
2018-02-05T09:00:33.235Z,36.28
2018-02-05T09:03:01.711Z,34.75
2018-02-05T09:05:30.250Z,35.82
2018-02-05T09:07:58.871Z,35.95
2018-02-05T09:10:27.823Z,36.08
2018-02-05T09:12:55.921Z,36.64
2018-02-05T09:15:23.505Z,37.18
2018-02-05T09:17:51.365Z,38.16
2018-02-05T09:20:19.227Z,38.11
2018-02-05T09:22:46.804Z,36.63
2018-02-05T09:25:14.775Z,37.48
2018-02-05T09:27:43.421Z,37.28
2018-02-05T09:30:11.015Z,37.82
2018-02-05T09:32:38.781Z,37.27
2018-02-05T09:35:07.967Z,38.27
2018-02-05T09:37:35.564Z,38.36
2018-02-05T09:40:03.389Z,38.29
2018-02-05T09:42:31.034Z,37.23
2018-02-05T09:44:58.634Z,38.35
2018-02-05T09:47:26.371Z,37.49
2018-02-05T09:49:54.271Z,38.82
2018-02-05T09:52:21.937Z,38.57
2018-02-05T09:54:49.699Z,37.21
2018-02-05T09:57:17.448Z,36.49
2018-02-05T09:59:45.229Z,36.08
2018-02-05T10:02:13.744Z,35.88
2018-02-05T10:04:41.411Z,35.32
2018-02-05T10:07:09.128Z,35.84
2018-02-05T10:09:37.201Z,36.01
2018-02-05T10:12:04.773Z,36.43
2018-02-05T10:14:32.383Z,36.35
2018-02-05T10:17:00.176Z,35.07
2018-02-05T10:19:28.399Z,35.15
2018-02-05T10:21:56.005Z,35.39
2018-02-05T10:24:23.604Z,35.23
2018-02-05T10:26:51.159Z,35.59
2018-02-05T10:29:19.022Z,36.06
2018-02-05T10:31:46.576Z,37.29
2018-02-05T10:34:14.866Z,37.83
2018-02-05T10:36:42.758Z,36.98
2018-02-05T10:39:10.367Z,35.23
2018-02-05T10:41:38.557Z,35.23
2018-02-05T10:44:06.199Z,34.36
2018-02-05T10:46:33.760Z,34.97
2018-02-05T10:49:01.413Z,36.24
2018-02-05T10:51:29.627Z,35.48
2018-02-05T10:53:59.132Z,34.48
2018-02-05T10:56:26.834Z,34.64
2018-02-05T10:58:54.875Z,35.69
2018-02-05T11:01:22.780Z,36.36
2018-02-05T11:03:50.392Z,37.09
2018-02-05T11:06:18.664Z,36.83
2018-02-05T11:08:46.243Z,37.86
2018-02-05T11:11:13.839Z,38.37
2018-02-05T11:13:42.744Z,38.16
2018-02-05T11:16:10.291Z,38.49
2018-02-05T11:18:38.726Z,38.64
2018-02-05T11:21:06.336Z,38.62
2018-02-05T11:23:33.949Z,35.21
2018-02-05T11:26:02.187Z,33.54
2018-02-05T11:28:29.990Z,34.83
2018-02-05T11:30:57.564Z,34.93
2018-02-05T11:33:25.755Z,34.86
2018-02-05T11:35:54.220Z,34.61
2018-02-05T11:38:22.102Z,34.83
2018-02-05T11:40:49.656Z,34.82
2018-02-05T11:43:17.421Z,33.38
2018-02-05T11:45:45.012Z,33.29
2018-02-05T11:48:12.676Z,34.31
2018-02-05T11:50:40.268Z,33.11
2018-02-05T11:53:08.138Z,35.37
2018-02-05T11:55:36.070Z,35.00
2018-02-05T11:58:03.721Z,35.30
2018-02-05T12:00:31.570Z,34.78
2018-02-05T12:03:00.012Z,34.41
2018-02-05T12:05:28.075Z,34.92
2018-02-05T12:07:56.067Z,34.89
2018-02-05T12:10:24.113Z,34.80
2018-02-05T12:12:52.507Z,33.93
2018-02-05T12:15:20.106Z,34.75
2018-02-05T12:17:48.359Z,34.89
2018-02-05T12:20:16.213Z,34.87
2018-02-05T12:22:44.763Z,36.98
2018-02-05T12:25:12.614Z,38.12
2018-02-05T12:27:40.900Z,38.74
2018-02-05T12:30:09.401Z,39.12
2018-02-05T12:32:37.001Z,36.94
2018-02-05T12:35:04.617Z,38.56
2018-02-05T12:37:32.232Z,39.07
2018-02-05T12:39:59.799Z,39.24
2018-02-05T12:42:27.716Z,39.55
2018-02-05T12:44:55.340Z,39.92
2018-02-05T12:47:22.953Z,39.24
2018-02-05T12:49:50.528Z,39.41
2018-02-05T12:52:18.503Z,39.34
2018-02-05T12:54:46.913Z,40.14
2018-02-05T12:57:15.237Z,40.35
2018-02-05T12:59:48.368Z,40.01
2018-02-05T13:02:16.315Z,36.07
2018-02-05T13:07:49.715Z,34.34
2018-02-05T13:10:18.259Z,34.86
2018-02-05T13:12:46.393Z,36.65
2018-02-05T13:15:14.004Z,37.21
2018-02-05T13:17:41.646Z,38.00
2018-02-05T13:20:09.992Z,36.10
2018-02-05T13:22:39.473Z,34.69
2018-02-05T13:25:08.256Z,35.55
2018-02-05T13:27:35.822Z,35.01
2018-02-05T13:30:03.438Z,34.33
2018-02-05T13:32:32.914Z,34.83
2018-02-05T13:35:00.592Z,34.38
2018-02-05T13:37:28.305Z,35.67
2018-02-05T13:39:55.917Z,36.62
2018-02-05T13:42:23.505Z,37.54
2018-02-05T13:44:51.168Z,38.51
2018-02-05T13:47:18.774Z,38.61
2018-02-05T13:49:46.322Z,38.50
2018-02-05T13:52:13.982Z,38.98
2018-02-05T13:54:41.592Z,39.80
2018-02-05T13:57:09.794Z,40.19
2018-02-05T13:59:37.378Z,40.20
2018-02-05T14:02:04.972Z,40.29
2018-02-05T14:04:32.530Z,40.61
2018-02-05T14:07:00.122Z,41.08
2018-02-05T14:09:28.420Z,41.74
2018-02-05T14:11:56.024Z,41.35
2018-02-05T14:14:23.613Z,41.18
2018-02-05T14:16:51.223Z,41.31
2018-02-05T14:19:19.971Z,41.64
2018-02-05T14:21:47.588Z,42.06
2018-02-05T14:24:15.777Z,41.82
2018-02-05T14:26:44.500Z,41.79
2018-02-05T14:29:12.152Z,41.56
2018-02-05T14:31:40.716Z,41.77
2018-02-05T14:34:09.199Z,41.58
2018-02-05T14:36:37.805Z,41.51
2018-02-05T14:39:05.434Z,41.37
2018-02-05T14:41:33.041Z,41.42
2018-02-05T14:44:00.592Z,41.25
2018-02-05T14:46:28.199Z,41.30
2018-02-05T14:48:57.096Z,41.36
2018-02-05T14:51:24.686Z,41.35
2018-02-05T14:53:52.239Z,41.67
2018-02-05T14:56:19.848Z,41.68
2018-02-05T14:58:47.398Z,41.59
2018-02-05T15:01:15.243Z,41.69
2018-02-05T15:03:43.023Z,41.72
2018-02-05T15:06:10.964Z,42.04
2018-02-05T15:08:38.569Z,42.04
2018-02-05T15:11:06.426Z,41.67
2018-02-05T15:13:33.984Z,41.38
2018-02-05T15:16:02.007Z,41.09
2018-02-05T15:18:29.921Z,41.34
2018-02-05T15:20:58.042Z,41.23
2018-02-05T15:23:25.864Z,41.34
2018-02-05T15:25:53.479Z,41.37
2018-02-05T15:28:21.381Z,41.28
2018-02-05T15:30:50.643Z,41.88
2018-02-05T15:33:19.390Z,42.04
2018-02-05T15:35:47.988Z,42.04
2018-02-05T15:38:15.959Z,42.20
2018-02-05T15:40:44.139Z,42.34
2018-02-05T15:43:12.268Z,42.39
2018-02-05T15:45:39.869Z,42.52
2018-02-05T15:48:08.767Z,42.59
2018-02-05T15:50:36.671Z,42.70
2018-02-05T15:53:05.114Z,42.88
2018-02-05T15:55:32.746Z,43.03
2018-02-05T15:58:00.687Z,43.22
2018-02-05T16:00:28.617Z,43.27
2018-02-05T16:02:56.180Z,43.37
2018-02-05T16:05:23.787Z,43.79
2018-02-05T16:07:51.380Z,44.34
2018-02-05T16:10:19.208Z,44.51
2018-02-05T16:12:46.811Z,45.00
2018-02-05T16:15:14.371Z,45.54
2018-02-05T16:17:42.014Z,45.45
2018-02-05T16:20:09.581Z,45.68
2018-02-05T16:22:37.131Z,45.67
2018-02-05T16:25:04.833Z,47.45
2018-02-05T16:27:32.667Z,47.97
2018-02-05T16:30:00.258Z,47.61
2018-02-05T16:32:27.811Z,48.00
2018-02-05T16:34:55.408Z,47.96
2018-02-05T16:37:24.799Z,47.53
2018-02-05T16:39:52.809Z,47.09
2018-02-05T16:42:21.220Z,47.29
2018-02-05T16:44:49.196Z,46.73
2018-02-05T16:47:16.791Z,47.30
2018-02-05T16:49:44.347Z,48.26
2018-02-05T16:52:12.798Z,49.55
2018-02-05T16:54:41.204Z,49.55
2018-02-05T16:57:09.144Z,50.13
2018-02-05T16:59:36.744Z,51.28
2018-02-05T17:02:04.670Z,52.52
2018-02-05T17:04:32.636Z,52.08
2018-02-05T17:07:00.966Z,51.47
2018-02-05T17:09:28.576Z,50.85
2018-02-05T17:11:58.283Z,50.50
2018-02-05T17:14:26.593Z,49.90
2018-02-05T17:16:54.668Z,49.68
2018-02-05T17:19:22.615Z,49.00
2018-02-05T17:21:51.113Z,49.78
2018-02-05T17:24:18.708Z,49.47
2018-02-05T17:26:48.236Z,49.75
2018-02-05T17:29:15.848Z,50.05
2018-02-05T17:31:43.668Z,49.71
2018-02-05T17:34:11.532Z,49.71
2018-02-05T17:36:39.792Z,49.34
2018-02-05T17:39:08.279Z,48.68
2018-02-05T17:41:35.884Z,48.13
2018-02-05T17:44:03.946Z,48.41
2018-02-05T17:46:31.505Z,48.43
2018-02-05T17:48:59.972Z,48.99
2018-02-05T17:51:27.583Z,48.98
2018-02-05T17:53:55.152Z,49.28
2018-02-05T17:56:23.160Z,50.07
2018-02-05T17:58:52.683Z,50.08
2018-02-05T18:01:20.666Z,50.20
2018-02-05T18:03:48.568Z,50.62
2018-02-05T18:06:16.896Z,50.56
2018-02-05T18:08:45.521Z,50.37
2018-02-05T18:11:14.682Z,50.54
2018-02-05T18:13:42.276Z,51.14
2018-02-05T18:16:10.815Z,51.90
2018-02-05T18:18:38.953Z,52.35
2018-02-05T18:21:06.992Z,52.92
2018-02-05T18:23:35.036Z,54.17
2018-02-05T18:26:03.312Z,54.58
2018-02-05T18:28:31.676Z,54.36
2018-02-05T18:31:00.224Z,54.52
2018-02-05T18:33:27.821Z,55.28
2018-02-05T18:35:56.815Z,55.20
2018-02-05T18:38:24.402Z,55.29
2018-02-05T18:40:52.253Z,56.05
2018-02-05T18:43:20.020Z,57.36
2018-02-05T18:45:48.190Z,57.75
2018-02-05T18:48:16.204Z,58.44
2018-02-05T18:50:45.384Z,58.99
2018-02-05T18:53:13.753Z,59.34
2018-02-05T18:55:42.806Z,58.96
2018-02-05T18:58:11.116Z,58.70
2018-02-05T19:00:49.335Z,59.11
2018-02-05T19:03:18.149Z,58.96
2018-02-05T19:05:46.592Z,58.08
2018-02-05T19:08:14.732Z,58.10
2018-02-05T19:10:44.271Z,58.85
2018-02-05T19:13:12.361Z,58.44
2018-02-05T19:15:41.455Z,58.14
2018-02-05T19:18:09.791Z,57.74
2018-02-05T19:20:38.516Z,57.54
2018-02-05T19:23:07.747Z,57.61
2018-02-05T19:25:36.916Z,57.26
2018-02-05T19:28:05.580Z,57.84
2018-02-05T19:30:33.874Z,58.10
2018-02-05T19:33:02.864Z,58.40
2018-02-05T19:35:31.349Z,58.00
2018-02-05T19:38:03.615Z,57.95
2018-02-05T19:40:32.436Z,58.10
2018-02-05T19:43:02.167Z,58.36
2018-02-05T19:45:30.688Z,58.47
2018-02-05T19:47:59.247Z,58.56
2018-02-05T19:50:28.276Z,58.17
2018-02-05T19:52:58.905Z,58.94
2018-02-05T19:55:29.148Z,58.65
2018-02-05T19:57:59.246Z,58.54
2018-02-05T20:00:27.956Z,58.64
2018-02-05T20:02:56.972Z,59.01
2018-02-05T20:05:26.839Z,59.40
2018-02-05T20:07:56.137Z,59.92
2018-02-05T20:10:24.514Z,60.21
2018-02-05T20:12:53.807Z,60.17
2018-02-05T20:15:23.025Z,60.36
2018-02-05T20:17:53.161Z,59.45
2018-02-05T20:20:23.561Z,58.67
2018-02-05T20:22:53.473Z,58.15
2018-02-05T20:25:21.739Z,58.63
2018-02-05T20:27:49.824Z,59.93
2018-02-05T20:30:17.787Z,60.09
2018-02-05T20:32:45.879Z,60.48
2018-02-05T20:35:15.889Z,60.52
2018-02-05T20:37:45.264Z,59.79
2018-02-05T20:40:14.570Z,59.07
2018-02-05T20:42:43.689Z,58.64
2018-02-05T20:45:12.955Z,59.39
2018-02-05T20:47:46.298Z,59.12
2018-02-05T20:50:14.545Z,58.90
2018-02-05T20:52:43.824Z,59.16
2018-02-05T20:55:12.426Z,59.17
2018-02-05T20:57:40.346Z,59.57
2018-02-05T21:00:08.210Z,60.54
2018-02-05T21:02:36.294Z,60.79
2018-02-05T21:05:04.187Z,60.89
2018-02-05T21:07:32.365Z,61.96
2018-02-05T21:10:00.430Z,62.83
2018-02-05T21:12:28.554Z,62.93
2018-02-05T21:14:59.190Z,63.09
2018-02-05T21:17:27.361Z,61.86
2018-02-05T21:19:55.669Z,61.06
2018-02-05T21:22:23.262Z,62.34
2018-02-05T21:24:52.851Z,63.15
2018-02-05T21:27:20.452Z,62.18
2018-02-05T21:29:48.041Z,61.85
2018-02-05T21:32:16.297Z,64.72
2018-02-05T21:34:43.867Z,64.27
2018-02-05T21:37:11.472Z,63.25
2018-02-05T21:39:39.034Z,63.86
2018-02-05T21:42:07.879Z,64.07
2018-02-05T21:44:35.467Z,64.47
2018-02-05T21:47:03.028Z,66.59
2018-02-05T21:49:30.611Z,65.95
2018-02-05T21:51:58.172Z,64.83
2018-02-05T21:54:25.777Z,63.70
2018-02-05T21:56:53.319Z,63.03
2018-02-05T21:59:20.927Z,63.28
2018-02-05T22:01:48.467Z,62.12
2018-02-05T22:04:16.468Z,61.05
2018-02-05T22:06:44.011Z,61.57
2018-02-05T22:09:11.555Z,61.68
2018-02-05T22:11:39.152Z,60.91
2018-02-05T22:14:06.763Z,62.67
2018-02-05T22:16:34.719Z,63.20
2018-02-05T22:19:02.310Z,61.09
2018-02-05T22:21:29.872Z,60.77
2018-02-05T22:23:57.425Z,61.38
2018-02-05T22:26:25.014Z,62.81
2018-02-05T22:28:52.568Z,62.43
2018-02-05T22:31:20.475Z,62.56
2018-02-05T22:33:48.428Z,61.57
2018-02-05T22:36:15.971Z,60.51
2018-02-05T22:38:44.144Z,60.44
2018-02-05T22:41:11.735Z,61.96
2018-02-05T22:43:39.324Z,62.59
2018-02-05T22:46:06.908Z,63.81
2018-02-05T22:48:34.495Z,62.58
2018-02-05T22:51:02.039Z,62.11
2018-02-05T22:53:29.652Z,60.66
2018-02-05T22:55:57.196Z,61.52
2018-02-05T22:58:24.803Z,61.21
2018-02-05T23:00:52.360Z,60.58
2018-02-05T23:03:19.955Z,59.71
2018-02-05T23:05:47.960Z,58.93
2018-02-05T23:08:15.499Z,59.32
2018-02-05T23:10:43.062Z,60.19
2018-02-05T23:13:10.657Z,60.55
2018-02-05T23:15:38.207Z,60.30
2018-02-05T23:18:05.812Z,59.85
2018-02-05T23:20:33.418Z,59.57
2018-02-05T23:23:00.964Z,59.16
2018-02-05T23:25:29.148Z,58.79
2018-02-05T23:27:56.743Z,59.05
2018-02-05T23:30:24.276Z,58.40
2018-02-05T23:32:51.876Z,57.87
2018-02-05T23:35:19.473Z,58.08
2018-02-05T23:37:47.029Z,57.64
2018-02-05T23:40:14.628Z,57.96
2018-02-05T23:42:42.880Z,58.34
2018-02-05T23:45:10.480Z,59.65
2018-02-05T23:47:38.930Z,60.43
2018-02-05T23:50:06.982Z,60.60
2018-02-05T23:52:34.527Z,59.69
2018-02-05T23:55:02.135Z,58.73
2018-02-05T23:57:29.689Z,57.84
2018-02-05T23:59:57.243Z,57.29
